This is the latest recevied weather packets stored in our database for station/object AE6EO. If no packets are shown the sender has not sent any weather packets the latest 10 day(s).
| Time | Temp. | Humidity | Pressure | Rain* | Wind** | Luminosity | Snow |
|---|---|---|---|---|---|---|---|
| 1777193117 | 13.33° C | 75% | 1011.4 hPa | 0 mm | - | - | - |
| 1777190716 | 13.33° C | 74% | 1011.7 hPa | 0 mm | - | - | - |
| 1777187717 | 13.33° C | 73% | 1011.5 hPa | 0 mm | - | - | - |
| 1777179317 | 13.33° C | 73% | 1011.5 hPa | 0 mm | - | - | - |
| 1777178717 | 13.33° C | 74% | 1011.4 hPa | 0 mm | - | - | - |
| 1777177517 | 13.33° C | 75% | 1011.4 hPa | 0 mm | - | - | - |
| 1777174516 | 13.33° C | 71% | 1011.2 hPa | 0 mm | - | - | - |
| 1777172115 | 13.89° C | 70% | 1011 hPa | 0 mm | - | - | - |
| 1777168515 | 13.89° C | 70% | 1011 hPa | 0 mm | - | - | - |
| 1777167317 | 13.89° C | 69% | 1011.1 hPa | 0 mm | - | - | - |
| 1777166716 | 14.44° C | 69% | 1011.1 hPa | 0 mm | - | - | - |
| 1777166118 | 14.44° C | 70% | 1011.1 hPa | 0 mm | - | - | - |
| 1777164315 | 14.44° C | 70% | 1011.1 hPa | 0 mm | - | - | - |
| 1777161917 | 14.44° C | 68% | 1011 hPa | 0 mm | - | - | - |
| 1777159517 | 15.56° C | 65% | 1011.2 hPa | 0 mm | - | - | - |
| 1777151717 | 16.11° C | 65% | 1012 hPa | 0 mm | - | - | - |
| 1777142138 | 14.44° C | 72% | 1012.9 hPa | 0 mm | - | - | - |
| 1777128915 | 13.33° C | 72% | 1012.3 hPa | 0 mm | - | - | - |
| 1777125917 | 12.78° C | 71% | 1012.1 hPa | 0 mm | - | - | - |
| 1777125336 | 12.78° C | 70% | 1012.1 hPa | 0 mm | - | - | - |
| 1777122317 | 12.78° C | 69% | 1012 hPa | 0 mm | - | - | - |
| 1777121115 | 12.78° C | 68% | 1011.9 hPa | 0 mm | - | - | - |
| 1777118718 | 12.78° C | 68% | 1012.2 hPa | 0 mm | - | - | - |
| 1777115115 | 12.78° C | 68% | 1012.3 hPa | 0 mm | - | - | - |
| 1777104317 | 13.33° C | 70% | 1013 hPa | 0 mm | - | - | - |
* Rain latest hour (hover to see other rain measurements)
** Current wind speed in m/s (hover to see current wind gust speed)